Time;durP1;ratioP1;P1;durP2;ratioP2;P2;SDS_P1;SDS_P2;PMS_P1;PMS_P2;Temp;Humidity;BMP_temperature;BMP_pressure;BME280_temperature;BME280_humidity;BME280_pressure;Samples;Min_cycle;Max_cycle;Signal;HPM_P1;HPM_P2
2024/02/03 00:00:43;;;;;;;66.32;39.65;;;;;;;2.71;100.00;104566.84;5058095;28;20039;-69
2024/02/03 00:03:09;;;;;;;70.38;44.90;;;;;;;3.32;100.00;104720.81;5058001;28;20483;-72
2024/02/03 00:05:34;;;;;;;88.22;52.45;;;;;;;2.44;100.00;104628.34;5056887;28;20032;-70
2024/02/03 00:08:00;;;;;;;73.95;45.92;;;;;;;3.18;100.00;104842.97;5057765;28;20025;-70
2024/02/03 00:10:25;;;;;;;66.25;41.40;;;;;;;3.20;100.00;104880.81;5056368;28;20032;-70
2024/02/03 00:12:54;;;;;;;64.45;40.90;;;;;;;2.03;100.00;104726.13;5062101;28;20036;-70
2024/02/03 00:15:21;;;;;;;65.18;40.28;;;;;;;2.90;100.00;104924.41;5057028;28;20571;-70
2024/02/03 00:17:47;;;;;;;60.85;38.47;;;;;;;2.53;100.00;104919.59;5058346;28;20379;-70
2024/02/03 00:20:13;;;;;;;52.78;34.80;;;;;;;2.64;100.00;104962.44;5055455;28;20052;-70
2024/02/03 00:22:39;;;;;;;53.28;36.15;;;;;;;2.18;100.00;104909.03;5059476;28;20021;-71
2024/02/03 00:25:05;;;;;;;52.47;35.53;;;;;;;3.18;100.00;105137.19;5061055;28;20039;-70
2024/02/03 00:27:31;;;;;;;53.80;36.22;;;;;;;2.82;100.00;105123.97;5054835;28;20407;-70
2024/02/03 00:29:57;;;;;;;51.83;36.00;;;;;;;3.33;100.00;105176.22;5060626;28;20093;-70
2024/02/03 00:32:22;;;;;;;60.53;39.00;;;;;;;2.53;100.00;105136.53;5056349;28;20032;-70
2024/02/03 00:34:48;;;;;;;68.13;42.10;;;;;;;2.88;100.00;105252.69;5057123;28;20538;-71
2024/02/03 00:37:13;;;;;;;67.72;42.63;;;;;;;2.94;100.00;105308.56;5060162;28;20037;-73
2024/02/03 00:39:42;;;;;;;56.53;38.50;;;;;;;2.90;100.00;105329.13;5055835;28;20086;-71
2024/02/03 00:42:08;;;;;;;59.90;39.00;;;;;;;2.42;100.00;105294.53;5059612;28;20028;-74
2024/02/03 00:44:34;;;;;;;66.72;43.20;;;;;;;2.05;100.00;105272.72;5061883;28;20040;-70
2024/02/03 00:46:59;;;;;;;62.60;41.95;;;;;;;2.21;100.00;105340.31;5056660;28;20075;-70
2024/02/03 00:49:25;;;;;;;63.15;42.03;;;;;;;2.38;100.00;105418.09;5059636;28;20418;-71
2024/02/03 00:51:50;;;;;;;65.88;41.25;;;;;;;2.92;100.00;105590.72;5055784;28;20028;-70
2024/02/03 00:54:16;;;;;;;62.35;39.85;;;;;;;3.06;100.00;105641.59;5059485;28;20115;-71
2024/02/03 00:56:41;;;;;;;60.05;39.85;;;;;;;2.05;100.00;105510.31;5060446;28;20037;-70
2024/02/03 00:59:07;;;;;;;60.05;37.25;;;;;;;2.42;100.00;105578.41;5061009;28;20028;-74
2024/02/03 01:01:32;;;;;;;60.20;37.33;;;;;;;2.44;100.00;105638.09;5062885;28;20029;-70
2024/02/03 01:03:58;;;;;;;54.85;37.05;;;;;;;2.91;100.00;105738.16;5061155;28;20066;-70
2024/02/03 01:06:23;;;;;;;56.25;36.85;;;;;;;2.67;100.00;105773.53;5059011;28;20496;-70
2024/02/03 01:08:49;;;;;;;52.53;35.42;;;;;;;2.10;100.00;105669.84;5052529;28;20035;-70
2024/02/03 01:11:14;;;;;;;51.85;35.10;;;;;;;2.30;100.00;105727.91;5055522;28;21715;-70
2024/02/03 01:13:40;;;;;;;52.60;34.92;;;;;;;2.57;100.00;105846.25;5061242;28;20028;-70
2024/02/03 01:16:06;;;;;;;52.97;35.17;;;;;;;1.76;100.00;105710.78;5061435;28;20416;-70
2024/02/03 01:18:31;;;;;;;55.60;35.45;;;;;;;1.74;100.00;105717.28;5061701;28;20029;-70
2024/02/03 01:20:57;;;;;;;55.47;34.92;;;;;;;2.61;100.00;105961.41;5058332;28;20067;-71
2024/02/03 01:23:22;;;;;;;54.42;35.00;;;;;;;2.42;100.00;105985.38;5056032;28;20040;-70
2024/02/03 01:25:49;;;;;;;53.85;35.88;;;;;;;2.59;100.00;106073.44;5063449;28;20029;-70
2024/02/03 01:28:15;;;;;;;54.40;35.08;;;;;;;2.23;100.00;106072.16;5057827;28;20040;-70
2024/02/03 01:30:41;;;;;;;59.65;36.53;;;;;;;1.89;100.00;106104.47;5058849;28;20411;-70
2024/02/03 01:33:07;;;;;;;53.08;34.90;;;;;;;1.76;100.00;106148.34;5064660;28;20031;-71
2024/02/03 01:35:32;;;;;;;50.90;34.25;;;;;;;2.17;100.00;106270.81;5061940;28;20029;-70
2024/02/03 01:37:58;;;;;;;50.15;34.33;;;;;;;2.27;100.00;106348.03;5062059;28;20388;-69
2024/02/03 01:40:23;;;;;;;53.17;34.85;;;;;;;2.53;100.00;106517.63;5057628;28;20035;-70
2024/02/03 01:42:49;;;;;;;50.30;31.88;;;;;;;2.57;100.00;106620.28;5061065;28;20024;-70
2024/02/03 01:45:15;;;;;;;54.08;34.55;;;;;;;2.18;100.00;106608.28;5063889;28;20029;-71
2024/02/03 01:47:41;;;;;;;50.22;34.13;;;;;;;2.30;100.00;106482.41;5064543;28;20036;-71
2024/02/03 01:50:08;;;;;;;58.33;34.83;;;;;;;2.23;100.00;106534.31;5056164;28;20040;-71
2024/02/03 01:52:33;;;;;;;55.28;34.10;;;;;;;2.20;100.00;106604.31;5064086;28;20504;-71
2024/02/03 01:54:59;;;;;;;48.88;32.72;;;;;;;2.22;100.00;106648.97;5059314;28;20045;-69
2024/02/03 01:57:26;;;;;;;53.35;32.97;;;;;;;2.21;100.00;106877.41;5059792;28;20037;-71
2024/02/03 01:59:53;;;;;;;52.55;33.72;;;;;;;1.51;100.00;106931.75;5060510;28;20110;-70
2024/02/03 02:02:18;;;;;;;60.97;34.30;;;;;;;2.03;100.00;107197.59;5057292;28;20542;-69
2024/02/03 02:04:44;;;;;;;55.15;34.28;;;;;;;2.28;100.00;108186.59;5058465;28;20025;-70
2024/02/03 02:07:09;;;;;;;51.88;33.25;;;;;;;1.58;100.00;108355.03;5060876;28;20096;-70
2024/02/03 02:09:35;;;;;;;49.63;32.25;;;;;;;2.08;100.00;108600.94;5061117;28;20128;-71
2024/02/03 02:12:00;;;;;;;52.08;33.72;;;;;;;2.21;100.00;109275.75;5061504;28;20035;-71
2024/02/03 02:14:26;;;;;;;54.42;34.38;;;;;;;2.20;100.00;109442.31;5061240;28;20119;-71
2024/02/03 02:16:53;;;;;;;56.22;35.15;;;;;;;1.97;100.00;109477.00;5060337;28;20024;-71
2024/02/03 02:19:19;;;;;;;53.78;35.22;;;;;;;1.57;100.00;109571.03;5057436;28;20406;-70
2024/02/03 02:21:45;;;;;;;54.35;34.20;;;;;;;2.50;100.00;109874.81;5064582;28;20032;-71
2024/02/03 02:24:12;;;;;;;52.63;33.67;;;;;;;1.67;100.00;109762.78;5060501;28;20090;-69
2024/02/03 02:26:37;;;;;;;54.15;33.38;;;;;;;1.63;100.00;109722.75;5063639;28;20033;-69
2024/02/03 02:29:03;;;;;;;55.10;34.78;;;;;;;2.24;100.00;109862.00;5059816;28;20032;-69
2024/02/03 02:31:28;;;;;;;56.70;35.60;;;;;;;2.43;100.00;110065.63;5061488;28;20081;-70
2024/02/03 02:33:54;;;;;;;56.05;37.55;;;;;;;1.80;100.00;109928.13;5062267;28;20037;-70
2024/02/03 02:36:19;;;;;;;54.65;36.22;;;;;;;1.67;100.00;109844.75;5062416;28;20029;-69
2024/02/03 02:38:45;;;;;;;52.53;35.72;;;;;;;1.82;100.00;109844.81;5061169;28;20063;-70
2024/02/03 02:41:10;;;;;;;53.95;36.25;;;;;;;2.24;100.00;109843.50;5062637;28;20116;-70
2024/02/03 02:43:36;;;;;;;55.28;36.33;;;;;;;2.20;100.00;109655.13;5058584;28;20498;-69
2024/02/03 02:46:01;;;;;;;60.35;38.88;;;;;;;2.01;100.00;109528.03;5062216;28;20415;-69
2024/02/03 02:48:27;;;;;;;53.95;35.58;;;;;;;1.96;100.00;109440.00;5060479;28;20439;-70
2024/02/03 02:50:52;;;;;;;56.55;37.65;;;;;;;2.36;100.00;109473.31;5060451;28;20565;-70
2024/02/03 02:53:17;;;;;;;53.97;35.70;;;;;;;1.91;100.00;109290.09;5059184;28;20533;-70
2024/02/03 02:55:43;;;;;;;56.00;36.63;;;;;;;1.93;100.00;109292.16;5067832;28;20045;-71
2024/02/03 02:58:08;;;;;;;58.83;37.28;;;;;;;1.44;100.00;109225.72;5058182;28;20033;-69
2024/02/03 03:00:34;;;;;;;52.33;34.80;;;;;;;2.17;100.00;109464.47;5059086;28;20033;-70
2024/02/03 03:03:00;;;;;;;58.78;37.83;;;;;;;1.37;100.00;109365.06;5056518;28;20043;-69
2024/02/03 03:05:25;;;;;;;57.72;37.45;;;;;;;1.10;100.00;109373.16;5063430;28;20108;-70
2024/02/03 03:07:51;;;;;;;57.42;37.92;;;;;;;1.10;100.00;109323.88;5059613;28;20117;-71
2024/02/03 03:10:16;;;;;;;58.58;37.72;;;;;;;2.02;100.00;109516.38;5061845;28;20422;-75
2024/02/03 03:12:42;;;;;;;60.72;38.75;;;;;;;1.50;100.00;109482.81;5054675;28;20025;-70
2024/02/03 03:15:08;;;;;;;59.67;38.00;;;;;;;2.22;100.00;109561.63;5061977;28;20025;-70
2024/02/03 03:17:34;;;;;;;63.53;39.97;;;;;;;1.70;100.00;109497.00;5061751;28;20028;-69
2024/02/03 03:19:59;;;;;;;58.85;37.88;;;;;;;1.17;100.00;109434.63;5061099;28;20038;-69
2024/02/03 03:22:25;;;;;;;62.95;39.45;;;;;;;1.67;100.00;109501.53;5056864;28;20032;-69
2024/02/03 03:24:50;;;;;;;58.15;36.42;;;;;;;1.71;100.00;109586.78;5064241;28;20032;-70
2024/02/03 03:27:16;;;;;;;60.28;36.63;;;;;;;0.83;100.00;109469.91;5059205;28;20529;-69
2024/02/03 03:29:42;;;;;;;57.28;36.45;;;;;;;0.85;100.00;109428.44;5056036;28;20538;-69
2024/02/03 03:32:07;;;;;;;58.42;38.22;;;;;;;1.10;100.00;109406.69;5061656;28;20423;-70
2024/02/03 03:34:33;;;;;;;58.63;39.17;;;;;;;1.37;100.00;109468.91;5056960;28;20075;-70
2024/02/03 03:36:58;;;;;;;61.78;39.90;;;;;;;0.79;100.00;109370.63;5062592;28;20484;-69
2024/02/03 03:39:24;;;;;;;63.28;40.45;;;;;;;0.93;100.00;109342.81;5058366;28;20060;-72
2024/02/03 03:41:49;;;;;;;62.50;40.10;;;;;;;0.54;100.00;109268.59;5055823;28;20164;-71
2024/02/03 03:44:14;;;;;;;58.58;38.60;;;;;;;0.76;100.00;109314.97;5055609;28;20033;-70
2024/02/03 03:46:40;;;;;;;55.47;37.58;;;;;;;1.25;100.00;109426.75;5060418;28;20032;-69
2024/02/03 03:49:05;;;;;;;70.18;44.45;;;;;;;1.37;100.00;109478.03;5060978;28;20047;-70
2024/02/03 03:51:31;;;;;;;69.05;46.30;;;;;;;0.17;100.00;109308.31;5062216;28;20032;-71
2024/02/03 03:53:57;;;;;;;65.40;44.60;;;;;;;0.97;100.00;109538.31;5065065;28;20036;-69
2024/02/03 03:56:22;;;;;;;58.80;41.58;;;;;;;0.80;100.00;109655.94;5059783;28;20045;-70
2024/02/03 03:58:47;;;;;;;62.30;41.55;;;;;;;1.18;100.00;109770.28;5053233;28;20480;-69
2024/02/03 04:01:13;;;;;;;61.13;40.35;;;;;;;1.35;100.00;109826.75;5059815;28;20825;-69
2024/02/03 04:03:39;;;;;;;58.75;39.72;;;;;;;1.10;100.00;109805.72;5054929;28;20035;-70
2024/02/03 04:06:05;;;;;;;65.28;42.25;;;;;;;0.50;100.00;109720.94;5060574;28;20498;-68
2024/02/03 04:08:31;;;;;;;59.50;39.50;;;;;;;1.57;100.00;110042.28;5051706;28;20097;-71
2024/02/03 04:10:56;;;;;;;61.05;39.22;;;;;;;0.56;100.00;109912.53;5051415;28;20040;-70
2024/02/03 04:13:22;;;;;;;62.38;40.95;;;;;;;0.44;100.00;109927.03;5050998;28;20093;-71
2024/02/03 04:15:47;;;;;;;76.28;47.67;;;;;;;0.31;100.00;109931.50;5052933;28;20032;-74
2024/02/03 04:18:13;;;;;;;74.00;45.63;;;;;;;0.75;100.00;110070.56;5052217;28;20052;-70
2024/02/03 04:20:39;;;;;;;82.13;47.05;;;;;;;0.53;100.00;110067.50;5051755;28;20029;-69
2024/02/03 04:23:04;;;;;;;80.50;50.22;;;;;;;0.60;100.00;110119.63;5051063;28;20056;-70
2024/02/03 04:25:30;;;;;;;74.28;46.03;;;;;;;1.40;100.00;110302.16;5049128;28;20510;-69
2024/02/03 04:27:55;;;;;;;72.47;44.38;;;;;;;1.47;100.00;110381.34;5050068;28;20029;-69
2024/02/03 04:30:20;;;;;;;59.22;35.42;;;;;;;2.25;100.00;110721.41;5052765;28;20036;-70
2024/02/03 04:32:46;;;;;;;74.00;45.58;;;;;;;1.10;100.00;110550.22;5050607;28;20025;-68
2024/02/03 04:35:11;;;;;;;64.10;42.15;;;;;;;0.57;100.00;110510.31;5055222;28;20029;-70
2024/02/03 04:37:37;;;;;;;71.53;43.42;;;;;;;0.39;100.00;110569.63;5053845;28;20033;-69
2024/02/03 04:40:06;;;;;;;63.72;41.22;;;;;;;1.29;100.00;110794.91;5054645;28;20472;-70
2024/02/03 04:42:31;;;;;;;61.95;39.28;;;;;;;1.28;100.00;110835.75;5050438;28;20106;-75
2024/02/03 04:44:57;;;;;;;60.47;38.28;;;;;;;1.61;100.00;110965.09;5046243;28;20029;-70
2024/02/03 04:47:22;;;;;;;59.60;37.40;;;;;;;1.89;100.00;111045.63;5055539;28;20041;-69
2024/02/03 04:49:48;;;;;;;63.67;40.83;;;;;;;1.36;100.00;110971.22;5048420;28;20108;-69
2024/02/03 04:52:13;;;;;;;63.10;39.63;;;;;;;0.56;100.00;110832.91;5053359;28;20036;-69
2024/02/03 04:54:38;;;;;;;62.63;42.33;;;;;;;0.78;100.00;110888.06;5055134;28;20129;-68
2024/02/03 04:57:04;;;;;;;70.80;44.08;;;;;;;0.79;100.00;110938.53;5053771;28;20063;-67
2024/02/03 04:59:29;;;;;;;69.05;45.60;;;;;;;1.16;100.00;111040.91;5056073;28;20032;-68
2024/02/03 05:01:55;;;;;;;72.50;47.03;;;;;;;1.61;100.00;111140.97;5054910;28;20081;-69
2024/02/03 05:04:20;;;;;;;76.47;50.53;;;;;;;1.11;100.00;111127.91;5059745;28;20546;-69
2024/02/03 05:06:46;;;;;;;74.80;46.10;;;;;;;1.71;100.00;111342.19;5058172;28;20032;-69
2024/02/03 05:09:11;;;;;;;69.43;43.60;;;;;;;1.18;100.00;111246.47;5054441;28;20025;-69
2024/02/03 05:11:37;;;;;;;85.75;52.05;;;;;;;0.96;100.00;111273.06;5052469;28;20071;-69
2024/02/03 05:14:02;;;;;;;86.43;51.40;;;;;;;0.47;100.00;111208.94;5060881;28;20060;-70
2024/02/03 05:16:28;;;;;;;74.10;46.47;;;;;;;0.94;100.00;111366.28;5056868;28;20043;-70
2024/02/03 05:18:53;;;;;;;77.72;47.50;;;;;;;0.80;100.00;111392.13;5060379;28;20045;-70
2024/02/03 05:21:19;;;;;;;78.85;49.40;;;;;;;0.93;100.00;111459.78;5062078;28;20479;-70
2024/02/03 05:23:44;;;;;;;88.20;55.42;;;;;;;0.00;100.00;111308.31;5057796;28;20037;-68
2024/02/03 05:26:10;;;;;;;89.03;55.17;;;;;;;1.08;100.00;111677.19;5059838;28;20032;-69
2024/02/03 05:28:35;;;;;;;78.75;51.08;;;;;;;0.73;100.00;111674.16;5057785;28;20036;-70
2024/02/03 05:31:01;;;;;;;76.57;49.55;;;;;;;0.64;100.00;111718.41;5060505;28;20049;-69
2024/02/03 05:33:26;;;;;;;86.10;54.63;;;;;;;0.91;100.00;111822.53;5057636;28;20032;-70
2024/02/03 05:35:52;;;;;;;80.50;53.67;;;;;;;0.41;100.00;111787.09;5056520;28;20024;-73
2024/02/03 05:38:17;;;;;;;87.85;57.83;;;;;;;0.27;100.00;111886.13;5053819;28;20177;-69
2024/02/03 05:40:43;;;;;;;87.65;58.95;;;;;;;0.52;100.00;111923.19;5053708;28;20041;-70
2024/02/03 05:43:08;;;;;;;92.75;58.22;;;;;;;0.17;100.00;111935.94;5055068;28;20028;-70
2024/02/03 05:45:34;;;;;;;86.85;56.88;;;;;;;0.93;100.00;112110.94;5056503;28;20524;-69
2024/02/03 05:47:59;;;;;;;88.05;57.28;;;;;;;0.89;100.00;112133.50;5059632;28;20025;-69
2024/02/03 05:50:25;;;;;;;100.90;65.05;;;;;;;0.77;100.00;112172.03;5058294;28;20029;-69
2024/02/03 05:52:50;;;;;;;106.47;64.95;;;;;;;0.89;100.00;112236.44;5058911;28;20111;-68
2024/02/03 05:55:16;;;;;;;96.53;61.58;;;;;;;-0.06;100.00;112056.47;5049169;28;20052;-69
2024/02/03 05:57:52;;;;;;;98.63;61.63;;;;;;;0.78;100.00;112264.28;5060029;28;20127;-70
2024/02/03 06:00:18;;;;;;;90.03;56.13;;;;;;;0.33;100.00;112238.53;5057515;28;20036;-70
2024/02/03 06:02:45;;;;;;;99.55;63.67;;;;;;;1.55;100.00;112537.03;5053849;28;20037;-70
2024/02/03 06:05:10;;;;;;;104.25;67.72;;;;;;;2.35;100.00;112332.72;5055119;28;20025;-69
2024/02/03 06:07:36;;;;;;;105.10;69.70;;;;;;;2.34;100.00;112329.88;5059464;28;20029;-70
2024/02/03 06:10:01;;;;;;;124.10;80.93;;;;;;;2.67;100.00;112310.03;5061259;28;20048;-69
2024/02/03 06:12:28;;;;;;;119.35;78.82;;;;;;;3.15;100.00;112261.09;5058767;28;20032;-72
2024/02/03 06:14:53;;;;;;;99.72;66.55;;;;;;;2.35;100.00;111897.38;5056302;28;20025;-69
2024/02/03 06:17:19;;;;;;;90.45;54.75;;;;;;;1.23;100.00;111548.72;5058212;28;20058;-69
2024/02/03 06:19:44;;;;;;;105.80;60.00;;;;;;;1.30;100.00;111489.00;5061421;28;20517;-72
2024/02/03 06:22:10;;;;;;;116.30;61.95;;;;;;;1.17;100.00;111440.44;5060874;28;20143;-70
2024/02/03 06:24:35;;;;;;;123.53;67.93;;;;;;;1.21;100.00;111475.56;5055288;28;20028;-69
2024/02/03 06:27:01;;;;;;;135.35;75.82;;;;;;;0.57;100.00;111399.19;5055008;28;20033;-69
2024/02/03 06:29:26;;;;;;;134.98;75.30;;;;;;;-0.01;100.00;111320.56;5062619;28;20059;-69
2024/02/03 06:31:52;;;;;;;108.97;65.55;;;;;;;1.31;100.00;111629.00;5060912;28;20469;-69
2024/02/03 06:34:17;;;;;;;147.00;85.03;;;;;;;1.84;100.00;111720.09;5059429;28;20055;-69
2024/02/03 06:36:42;;;;;;;170.18;97.15;;;;;;;1.36;100.00;111626.78;5063999;28;20399;-70
2024/02/03 06:39:08;;;;;;;212.75;122.45;;;;;;;1.41;100.00;111728.19;5060566;28;20028;-70
2024/02/03 06:41:33;;;;;;;149.30;84.78;;;;;;;1.58;100.00;111773.66;5063189;28;20040;-70
2024/02/03 06:43:59;;;;;;;153.27;91.97;;;;;;;1.69;100.00;111770.75;5057328;28;20043;-70
2024/02/03 06:46:24;;;;;;;178.68;105.35;;;;;;;2.11;100.00;111822.03;5058345;28;20115;-71
2024/02/03 06:48:51;;;;;;;129.45;73.53;;;;;;;1.43;100.00;111684.19;5063060;28;20029;-71
2024/02/03 06:51:16;;;;;;;125.55;69.13;;;;;;;2.17;100.00;111809.75;5059474;28;20033;-70
2024/02/03 06:53:42;;;;;;;146.27;72.50;;;;;;;2.29;100.00;111853.38;5064776;28;20027;-70
2024/02/03 06:56:09;;;;;;;138.07;78.32;;;;;;;2.28;100.00;111792.66;5057290;28;20056;-71
2024/02/03 06:58:34;;;;;;;142.30;79.15;;;;;;;2.45;100.00;111868.34;5061811;28;20036;-70
2024/02/03 07:01:00;;;;;;;130.98;75.40;;;;;;;3.80;100.00;112137.16;5060649;28;20162;-69
2024/02/03 07:03:25;;;;;;;111.70;62.70;;;;;;;3.70;100.00;112070.41;5060465;28;20043;-70
2024/02/03 07:05:51;;;;;;;99.00;56.50;;;;;;;3.97;100.00;112006.09;5057866;28;20115;-70
2024/02/03 07:08:16;;;;;;;94.85;55.78;;;;;;;4.26;100.00;111966.25;5059014;28;20047;-71
2024/02/03 07:10:42;;;;;;;92.32;52.90;;;;;;;4.00;100.00;111755.97;5059495;28;20111;-70
2024/02/03 07:13:07;;;;;;;86.30;51.33;;;;;;;4.60;100.00;111737.19;5058169;28;20404;-69
2024/02/03 07:15:32;;;;;;;73.35;47.38;;;;;;;4.30;100.00;111484.06;5060156;28;20501;-70
2024/02/03 07:17:58;;;;;;;80.85;50.50;;;;;;;4.38;100.00;111276.88;5061809;28;20098;-69
2024/02/03 07:20:23;;;;;;;85.18;53.75;;;;;;;4.61;100.00;111082.47;5064751;28;20028;-70
2024/02/03 07:22:49;;;;;;;118.15;77.53;;;;;;;5.11;100.00;110942.25;5060864;28;20546;-69
2024/02/03 07:25:19;;;;;;;82.20;54.47;;;;;;;4.15;100.00;110525.91;5058554;28;20035;-69
2024/02/03 07:27:45;;;;;;;107.30;69.25;;;;;;;4.18;100.00;110319.53;5063386;28;20434;-69
2024/02/03 07:30:10;;;;;;;111.32;77.20;;;;;;;4.64;100.00;110148.75;5060028;28;20021;-70
2024/02/03 07:32:36;;;;;;;115.72;79.78;;;;;;;4.84;100.00;110020.63;5061021;28;20033;-70
2024/02/03 07:35:02;;;;;;;100.05;69.47;;;;;;;4.32;100.00;109741.47;5054695;28;20067;-71
2024/02/03 07:37:27;;;;;;;91.40;61.67;;;;;;;4.30;100.00;109528.38;5061706;28;20044;-69
2024/02/03 07:39:53;;;;;;;91.63;62.72;;;;;;;5.11;100.00;109454.97;5056248;28;20037;-69
2024/02/03 07:42:19;;;;;;;66.55;46.22;;;;;;;3.79;100.00;109049.09;5058348;28;20407;-70
2024/02/03 07:44:44;;;;;;;85.25;59.55;;;;;;;4.44;100.00;109023.38;5058417;28;20039;-70
2024/02/03 07:47:12;;;;;;;65.10;44.80;;;;;;;5.11;100.00;109032.25;5055276;28;20029;-70
2024/02/03 07:49:37;;;;;;;88.53;57.22;;;;;;;4.14;100.00;108740.84;5056971;28;20490;-70
2024/02/03 07:52:03;;;;;;;71.72;47.58;;;;;;;4.27;100.00;108624.97;5058679;28;20067;-71
2024/02/03 07:54:29;;;;;;;67.57;47.05;;;;;;;4.86;100.00;108602.81;5060674;28;20487;-74
2024/02/03 07:56:54;;;;;;;58.75;39.25;;;;;;;4.83;100.00;108487.19;5059172;28;20040;-72
2024/02/03 07:59:20;;;;;;;47.08;33.08;;;;;;;4.98;100.00;108410.97;5060238;28;20033;-70
2024/02/03 08:01:45;;;;;;;51.50;31.27;;;;;;;4.45;100.00;108175.03;5053625;28;20025;-70
2024/02/03 08:04:11;;;;;;;49.42;32.95;;;;;;;4.76;100.00;108165.66;5060914;28;20029;-69
2024/02/03 08:06:36;;;;;;;56.08;34.50;;;;;;;5.20;100.00;108140.31;5061882;28;20055;-69
2024/02/03 08:09:02;;;;;;;55.50;37.38;;;;;;;4.41;100.00;107868.56;5061343;28;20036;-69
2024/02/03 08:11:28;;;;;;;52.40;35.67;;;;;;;5.00;100.00;107871.81;5058389;28;20029;-69
2024/02/03 08:13:53;;;;;;;58.17;36.80;;;;;;;3.77;100.00;107567.31;5058638;28;20029;-73
2024/02/03 08:16:18;;;;;;;51.47;34.30;;;;;;;4.67;100.00;107649.78;5062141;28;20032;-70
2024/02/03 08:18:44;;;;;;;53.15;35.97;;;;;;;4.76;100.00;107580.22;5055295;28;20041;-71
2024/02/03 08:21:09;;;;;;;52.70;35.90;;;;;;;4.94;100.00;107547.06;5059779;28;20461;-71
2024/02/03 08:23:35;;;;;;;49.55;35.67;;;;;;;4.79;100.00;107570.50;5059386;28;20036;-71
2024/02/03 08:26:00;;;;;;;49.03;34.08;;;;;;;5.51;100.00;107639.72;5059157;28;20380;-71
2024/02/03 08:28:26;;;;;;;56.50;38.97;;;;;;;5.09;100.00;107505.94;5059892;28;20020;-71
2024/02/03 08:30:51;;;;;;;48.53;33.67;;;;;;;4.95;100.00;107398.31;5056719;28;20115;-71
2024/02/03 08:33:17;;;;;;;51.35;36.38;;;;;;;5.14;100.00;107346.69;5058521;28;20065;-70
2024/02/03 08:35:42;;;;;;;49.92;36.55;;;;;;;5.13;100.00;107261.56;5060902;28;20089;-69
2024/02/03 08:38:08;;;;;;;48.80;33.15;;;;;;;5.08;100.00;107192.00;5058519;28;20029;-69
2024/02/03 08:40:33;;;;;;;45.13;32.72;;;;;;;5.64;100.00;107236.16;5057623;28;20040;-68
2024/02/03 08:42:59;;;;;;;47.42;31.58;;;;;;;5.44;100.00;107114.34;5052046;28;20111;-70
2024/02/03 08:45:24;;;;;;;42.28;30.95;;;;;;;5.57;100.00;107089.66;5057291;28;20044;-70
2024/02/03 08:47:50;;;;;;;46.10;32.90;;;;;;;4.38;100.00;106857.03;5058043;28;20037;-70
2024/02/03 08:50:15;;;;;;;45.00;31.50;;;;;;;5.63;100.00;107001.00;5060435;28;20464;-70
2024/02/03 08:52:41;;;;;;;44.88;29.65;;;;;;;4.99;100.00;106895.69;5052695;28;20430;-70
2024/02/03 08:55:07;;;;;;;40.97;30.38;;;;;;;5.45;100.00;106877.84;5055874;28;20048;-70
2024/02/03 08:57:32;;;;;;;40.90;28.83;;;;;;;5.31;100.00;106809.84;5058387;28;20032;-70
2024/02/03 08:59:58;;;;;;;46.45;31.80;;;;;;;5.34;100.00;106807.63;5053225;28;20036;-69
2024/02/03 09:02:24;;;;;;;45.70;31.23;;;;;;;5.65;100.00;106739.31;5059041;28;20094;-69
2024/02/03 09:04:49;;;;;;;43.25;31.27;;;;;;;5.43;100.00;106649.50;5060523;28;20515;-70
2024/02/03 09:07:14;;;;;;;45.80;31.70;;;;;;;6.02;100.00;106609.22;5058650;28;20043;-70
2024/02/03 09:09:40;;;;;;;47.70;31.95;;;;;;;6.58;100.00;106564.09;5057763;28;20045;-70
2024/02/03 09:12:06;;;;;;;42.00;29.23;;;;;;;6.97;100.00;106489.34;5058520;28;20025;-69
2024/02/03 09:14:32;;;;;;;43.22;29.23;;;;;;;6.87;100.00;106246.25;5056123;28;20559;-69
2024/02/03 09:16:57;;;;;;;39.33;28.75;;;;;;;6.90;100.00;106092.16;5056634;28;20120;-70
2024/02/03 09:19:23;;;;;;;47.65;33.10;;;;;;;6.56;100.00;105915.44;5091788;28;20124;-70
2024/02/03 09:21:48;;;;;;;36.47;26.67;;;;;;;5.07;100.00;105575.03;5055676;28;20114;-69
2024/02/03 09:24:15;;;;;;;44.13;30.13;;;;;;;6.21;100.00;105620.84;5057319;28;20510;-70
2024/02/03 09:26:41;;;;;;;40.33;28.95;;;;;;;5.92;100.00;105466.88;5056162;28;20485;-70
2024/02/03 09:29:07;;;;;;;59.13;38.92;;;;;;;6.53;100.00;105467.53;5055283;28;20509;-70
2024/02/03 09:31:34;;;;;;;40.20;29.17;;;;;;;6.51;100.00;105297.09;5057114;28;20275;-69
2024/02/03 09:34:04;;;;;;;42.10;28.58;;;;;;;6.64;100.00;105179.97;5050685;28;20033;-69
2024/02/03 09:36:30;;;;;;;47.40;30.98;;;;;;;7.10;100.00;105057.56;5059808;28;20036;-70
2024/02/03 09:38:56;;;;;;;49.40;34.40;;;;;;;6.95;100.00;104837.25;5060277;28;20032;-70
2024/02/03 09:41:22;;;;;;;42.78;31.08;;;;;;;7.63;100.00;104764.00;5058352;28;20039;-70
2024/02/03 09:43:48;;;;;;;43.92;34.15;;;;;;;7.25;100.00;104486.50;5064012;28;20038;-70
2024/02/03 09:46:14;;;;;;;39.30;28.35;;;;;;;7.23;100.00;104261.09;5065036;28;20032;-70
2024/02/03 09:48:40;;;;;;;34.38;26.20;;;;;;;8.18;100.00;104182.56;5051987;28;20036;-69
2024/02/03 09:51:06;;;;;;;34.25;27.02;;;;;;;7.86;100.00;103468.19;5057284;28;20040;-69
2024/02/03 09:53:32;;;;;;;36.17;26.88;;;;;;;7.72;100.00;103264.19;5057419;28;20033;-70
2024/02/03 09:55:58;;;;;;;35.60;26.77;;;;;;;7.38;100.00;103024.16;5057103;28;20048;-70
2024/02/03 09:58:24;;;;;;;34.80;25.85;;;;;;;7.03;100.00;102947.03;5061660;28;20048;-70
2024/02/03 10:00:53;;;;;;;35.10;25.67;;;;;;;8.15;100.00;102889.00;5060612;28;20502;-69
2024/02/03 10:03:19;;;;;;;34.17;25.55;;;;;;;7.55;100.00;102696.47;5064414;28;20404;-69
2024/02/03 10:05:45;;;;;;;30.02;24.13;;;;;;;8.73;100.00;102694.53;5060775;28;20167;-70
2024/02/03 10:08:11;;;;;;;31.08;23.23;;;;;;;8.04;100.00;102437.78;5057588;28;20064;-69
2024/02/03 10:10:38;;;;;;;31.95;23.35;;;;;;;8.25;100.00;102434.84;5061805;28;20138;-72
2024/02/03 10:13:15;;;;;;;32.22;24.30;;;;;;;7.67;100.00;102235.22;5062196;28;20036;-69
2024/02/03 10:15:41;;;;;;;28.77;22.33;;;;;;;8.72;100.00;102198.28;5060431;28;20025;-69
2024/02/03 10:18:10;;;;;;;30.00;21.88;;;;;;;8.20;100.00;102123.06;5059523;28;20040;-69
2024/02/03 10:20:36;;;;;;;31.60;23.50;;;;;;;7.91;100.00;101848.25;5061728;28;20037;-70
2024/02/03 10:23:02;;;;;;;28.08;21.98;;;;;;;9.23;100.00;101873.38;5058304;28;20019;-69
2024/02/03 10:25:29;;;;;;;25.88;20.15;;;;;;;8.99;100.00;101704.06;5060956;28;20423;-70
2024/02/03 10:28:08;;;;;;;25.33;20.08;;;;;;;9.47;100.00;101601.88;5059708;28;20033;-70
2024/02/03 10:30:37;;;;;;;25.40;19.67;;;;;;;9.94;100.00;101544.41;5064445;28;20024;-69
2024/02/03 10:33:05;;;;;;;25.33;18.65;;;;;;;9.40;100.00;101456.38;5059302;28;20036;-69
2024/02/03 10:35:32;;;;;;;23.52;17.45;;;;;;;9.65;100.00;101418.28;5060890;28;20113;-69
2024/02/03 10:37:58;;;;;;;24.88;19.17;;;;;;;9.81;100.00;101314.13;5061206;28;20439;-70
2024/02/03 10:40:25;;;;;;;21.60;17.08;;;;;;;9.49;100.00;101087.44;5054231;28;20040;-70
2024/02/03 10:42:55;;;;;;;22.83;17.48;;;;;;;9.22;100.00;101118.03;5061403;28;20032;-69
2024/02/03 10:45:27;;;;;;;20.75;15.88;;;;;;;10.03;100.00;101192.94;5061671;28;20081;-70
2024/02/03 10:47:57;;;;;;;21.92;14.60;;;;;;;10.31;100.00;101171.59;5060191;28;20037;-70
2024/02/03 10:50:37;;;;;;;17.27;13.20;;;;;;;9.04;100.00;101195.06;5060700;28;20036;-70
2024/02/03 10:53:25;;;;;;;15.45;11.90;;;;;;;9.15;100.00;101241.53;5056468;28;20452;-71
2024/02/03 10:55:56;;;;;;;15.50;12.10;;;;;;;9.54;100.00;101260.91;5058629;28;20079;-70
2024/02/03 10:58:27;;;;;;;14.98;11.65;;;;;;;9.82;100.00;101191.38;5059056;28;20029;-70
2024/02/03 11:00:53;;;;;;;13.70;11.27;;;;;;;9.25;100.00;101298.19;5060315;28;20047;-71
2024/02/03 11:03:22;;;;;;;14.02;10.85;;;;;;;9.91;100.00;101137.13;5063433;28;20017;-71